createdAt,value
2017-08-09T00:01:35.416Z,67.14
2017-08-09T00:04:04.529Z,67.46
2017-08-09T00:06:33.426Z,68.16
2017-08-09T00:09:02.996Z,67.67
2017-08-09T00:11:32.357Z,67.50
2017-08-09T00:14:02.230Z,67.14
2017-08-09T00:16:31.816Z,66.91
2017-08-09T00:19:00.922Z,66.87
2017-08-09T00:21:30.146Z,66.94
2017-08-09T00:23:59.980Z,66.96
2017-08-09T00:26:29.164Z,67.17
2017-08-09T00:28:58.747Z,67.24
2017-08-09T00:31:29.227Z,67.30
2017-08-09T00:33:58.866Z,67.36
2017-08-09T00:36:28.476Z,67.67
2017-08-09T00:38:57.664Z,67.71
2017-08-09T00:41:26.736Z,67.63
2017-08-09T00:43:56.376Z,68.14
2017-08-09T00:46:25.477Z,67.95
2017-08-09T00:48:55.044Z,67.89
2017-08-09T00:51:24.234Z,68.05
2017-08-09T00:53:53.385Z,68.03
2017-08-09T00:56:22.811Z,67.76
2017-08-09T00:58:51.998Z,67.27
2017-08-09T01:01:21.629Z,67.80
2017-08-09T01:03:50.975Z,67.72
2017-08-09T01:06:20.717Z,68.14
2017-08-09T01:08:50.117Z,68.03
2017-08-09T01:11:19.393Z,67.93
2017-08-09T01:13:48.884Z,68.00
2017-08-09T01:16:18.347Z,68.36
2017-08-09T01:18:48.208Z,68.03
2017-08-09T01:21:17.449Z,67.82
2017-08-09T01:23:46.716Z,67.98
2017-08-09T01:26:16.508Z,68.21
2017-08-09T01:28:45.681Z,68.45
2017-08-09T01:31:15.139Z,68.12
2017-08-09T01:33:44.643Z,67.76
2017-08-09T01:36:13.784Z,67.71
2017-08-09T01:38:43.240Z,67.42
2017-08-09T01:41:12.254Z,67.61
2017-08-09T01:43:41.623Z,67.97
2017-08-09T01:46:11.015Z,68.24
2017-08-09T01:48:40.306Z,67.90
2017-08-09T01:51:10.744Z,68.22
2017-08-09T01:53:40.172Z,69.24
2017-08-09T01:56:09.543Z,69.39
2017-08-09T01:58:39.025Z,68.88
2017-08-09T02:01:08.450Z,68.82
2017-08-09T02:03:37.753Z,68.74
2017-08-09T02:06:07.393Z,68.80
2017-08-09T02:08:37.190Z,68.89
2017-08-09T02:11:06.446Z,68.83
2017-08-09T02:13:37.079Z,68.63
2017-08-09T02:16:06.481Z,68.63
2017-08-09T02:18:35.953Z,69.63
2017-08-09T02:21:05.091Z,69.24
2017-08-09T02:23:35.290Z,68.88
2017-08-09T02:26:05.472Z,69.38
2017-08-09T02:28:35.392Z,69.42
2017-08-09T02:31:04.536Z,69.44
2017-08-09T02:33:33.623Z,69.38
2017-08-09T02:36:03.192Z,69.25
2017-08-09T02:38:32.705Z,69.50
2017-08-09T02:41:02.147Z,69.84
2017-08-09T02:43:31.478Z,69.70
2017-08-09T02:46:01.010Z,69.53
2017-08-09T02:48:30.816Z,69.37
2017-08-09T02:51:00.091Z,69.19
2017-08-09T02:53:29.764Z,68.95
2017-08-09T02:55:59.022Z,69.01
2017-08-09T02:58:28.499Z,69.12
2017-08-09T03:00:57.745Z,69.12
2017-08-09T03:03:26.890Z,69.06
2017-08-09T03:05:56.277Z,69.41
2017-08-09T03:08:25.830Z,69.33
2017-08-09T03:10:55.071Z,69.29
2017-08-09T03:13:25.052Z,69.45
2017-08-09T03:15:54.496Z,69.34
2017-08-09T03:18:24.012Z,69.06
2017-08-09T03:20:53.362Z,69.77
2017-08-09T03:23:22.806Z,70.25
2017-08-09T03:25:52.388Z,69.85
2017-08-09T03:28:21.591Z,70.42
2017-08-09T03:30:51.045Z,70.12
2017-08-09T03:33:20.341Z,70.66
2017-08-09T03:35:50.055Z,70.57
2017-08-09T03:38:19.448Z,70.35
2017-08-09T03:40:48.648Z,70.20
2017-08-09T03:43:18.021Z,70.07
2017-08-09T03:45:47.280Z,69.84
2017-08-09T03:48:16.855Z,69.68
2017-08-09T03:50:46.153Z,70.24
2017-08-09T03:53:15.992Z,70.63
2017-08-09T03:55:45.034Z,70.96
2017-08-09T03:58:14.593Z,71.15
2017-08-09T04:00:43.915Z,71.42
2017-08-09T04:03:13.167Z,71.37
2017-08-09T04:05:42.847Z,71.56
2017-08-09T04:08:12.248Z,71.55
2017-08-09T04:10:41.463Z,71.25
2017-08-09T04:13:11.093Z,71.11
2017-08-09T04:15:40.481Z,70.93
2017-08-09T04:18:10.657Z,71.18
2017-08-09T04:20:40.184Z,71.07
2017-08-09T04:23:09.703Z,71.25
2017-08-09T04:25:39.361Z,71.22
2017-08-09T04:28:08.605Z,70.96
2017-08-09T04:30:38.308Z,70.99
2017-08-09T04:33:08.127Z,70.82
2017-08-09T04:35:37.718Z,70.62
2017-08-09T04:38:07.359Z,70.70
2017-08-09T04:40:36.766Z,70.91
2017-08-09T04:43:06.536Z,70.79
2017-08-09T04:45:35.908Z,70.83
2017-08-09T04:48:06.228Z,70.67
2017-08-09T04:50:35.614Z,70.82
2017-08-09T04:53:06.209Z,70.88
2017-08-09T04:55:35.403Z,70.73
2017-08-09T04:58:04.937Z,70.45
2017-08-09T05:00:34.526Z,70.28
2017-08-09T05:03:04.081Z,70.04
2017-08-09T05:05:34.211Z,69.93
2017-08-09T05:08:03.284Z,69.79
2017-08-09T05:10:32.919Z,69.51
2017-08-09T05:13:02.204Z,69.20
2017-08-09T05:15:31.506Z,68.95
2017-08-09T05:18:00.996Z,68.88
2017-08-09T05:20:29.928Z,68.64
2017-08-09T05:22:59.661Z,68.96
2017-08-09T05:25:29.575Z,69.59
2017-08-09T05:27:58.881Z,69.53
2017-08-09T05:30:28.453Z,69.03
2017-08-09T05:32:57.720Z,68.50
2017-08-09T05:35:27.521Z,68.37
2017-08-09T05:37:56.706Z,67.98
2017-08-09T05:40:26.469Z,68.20
2017-08-09T05:42:55.849Z,68.81
2017-08-09T05:45:25.075Z,69.58
2017-08-09T05:47:54.697Z,69.62
2017-08-09T05:50:23.837Z,69.81
2017-08-09T05:52:53.345Z,69.12
2017-08-09T05:55:22.461Z,69.09
2017-08-09T05:57:51.682Z,69.04
2017-08-09T06:00:20.662Z,69.10
2017-08-09T06:02:50.026Z,68.84
2017-08-09T06:05:19.629Z,68.49
2017-08-09T06:07:48.782Z,67.91
2017-08-09T06:10:17.948Z,68.10
2017-08-09T06:12:47.552Z,68.47
2017-08-09T06:15:16.567Z,68.49
2017-08-09T06:17:45.963Z,67.01
2017-08-09T06:20:15.108Z,66.68
2017-08-09T06:22:44.208Z,66.63
2017-08-09T06:25:14.649Z,66.05
2017-08-09T06:27:43.801Z,65.57
2017-08-09T06:30:12.982Z,64.53
2017-08-09T06:32:42.726Z,64.18
2017-08-09T06:35:12.227Z,64.67
2017-08-09T06:37:41.699Z,64.34
2017-08-09T06:40:10.871Z,64.76
2017-08-09T06:42:39.979Z,63.83
2017-08-09T06:45:10.119Z,64.21
2017-08-09T06:47:39.310Z,63.49
2017-08-09T06:50:08.856Z,62.59
2017-08-09T06:52:38.063Z,62.92
2017-08-09T06:55:07.489Z,61.81
2017-08-09T06:57:36.882Z,60.47
2017-08-09T07:00:06.190Z,60.19
2017-08-09T07:02:35.582Z,59.94
2017-08-09T07:05:05.023Z,61.08
2017-08-09T07:07:34.528Z,61.35
2017-08-09T07:10:04.003Z,60.02
2017-08-09T07:12:33.235Z,60.34
2017-08-09T07:15:02.417Z,60.63
2017-08-09T07:17:32.164Z,61.54
2017-08-09T07:20:01.348Z,61.83
2017-08-09T07:22:31.517Z,61.38
2017-08-09T07:25:00.937Z,62.24
2017-08-09T07:27:30.370Z,62.31
2017-08-09T07:29:59.592Z,61.39
2017-08-09T07:32:28.971Z,61.34
2017-08-09T07:34:58.481Z,61.21
2017-08-09T07:37:27.824Z,61.39
2017-08-09T07:39:57.418Z,59.19
2017-08-09T07:42:26.569Z,59.67
2017-08-09T07:44:56.137Z,59.08
2017-08-09T07:47:25.251Z,59.77
2017-08-09T07:49:54.453Z,59.15
2017-08-09T07:52:25.009Z,59.25
2017-08-09T07:54:54.307Z,57.44
2017-08-09T07:57:24.024Z,58.06
2017-08-09T07:59:53.382Z,58.08
2017-08-09T08:02:22.617Z,58.60
2017-08-09T08:04:59.721Z,58.07
2017-08-09T08:07:29.183Z,58.93
2017-08-09T08:09:58.868Z,58.49
2017-08-09T08:12:28.094Z,57.75
2017-08-09T08:15:46.862Z,56.72
2017-08-09T08:18:16.537Z,56.88
2017-08-09T08:20:45.800Z,56.68
2017-08-09T08:23:15.795Z,54.87
2017-08-09T08:25:45.095Z,54.25
2017-08-09T08:28:14.396Z,54.13
2017-08-09T08:30:43.852Z,54.35
2017-08-09T08:33:12.837Z,55.10
2017-08-09T08:35:42.025Z,51.46
2017-08-09T08:38:11.477Z,51.48
2017-08-09T08:40:40.917Z,51.37
2017-08-09T08:43:10.111Z,51.95
2017-08-09T08:45:40.110Z,50.94
2017-08-09T08:48:09.610Z,50.79
2017-08-09T08:50:38.928Z,49.44
2017-08-09T08:53:08.615Z,50.19
2017-08-09T08:55:38.726Z,50.74
2017-08-09T08:58:08.559Z,49.08
2017-08-09T09:00:37.717Z,49.15
2017-08-09T09:03:07.264Z,48.19
2017-08-09T09:05:37.508Z,48.31
2017-08-09T09:08:07.513Z,48.58
2017-08-09T09:10:38.180Z,48.44
2017-08-09T09:13:07.974Z,50.61
2017-08-09T09:15:37.131Z,51.85
2017-08-09T09:18:06.388Z,49.62
2017-08-09T09:20:35.786Z,50.96
2017-08-09T09:23:05.006Z,52.42
2017-08-09T09:25:34.559Z,51.43
2017-08-09T09:28:04.039Z,50.75
2017-08-09T09:30:33.434Z,50.17
2017-08-09T09:33:02.421Z,49.21
2017-08-09T09:35:31.735Z,49.59
2017-08-09T09:38:02.085Z,51.88
2017-08-09T09:40:32.154Z,49.21
2017-08-09T09:43:01.267Z,50.73
2017-08-09T09:45:30.584Z,50.73
2017-08-09T09:47:59.684Z,51.07
2017-08-09T09:50:29.907Z,48.17
2017-08-09T09:52:59.625Z,49.19
2017-08-09T09:55:28.811Z,50.25
2017-08-09T09:57:58.314Z,48.44
2017-08-09T10:00:27.664Z,47.96
2017-08-09T10:02:57.011Z,45.94
2017-08-09T10:05:26.458Z,45.40
2017-08-09T10:07:56.157Z,45.84
2017-08-09T10:10:25.648Z,46.27
2017-08-09T10:12:55.018Z,45.31
2017-08-09T10:15:24.565Z,44.94
2017-08-09T10:17:54.246Z,42.10
2017-08-09T10:20:23.989Z,42.28
2017-08-09T10:22:53.210Z,42.26
2017-08-09T10:25:22.755Z,42.77
2017-08-09T10:27:52.145Z,42.21
2017-08-09T10:30:21.314Z,43.72
2017-08-09T10:32:51.097Z,41.42
2017-08-09T10:35:20.376Z,39.53
2017-08-09T10:37:49.757Z,39.36
2017-08-09T10:40:19.132Z,39.68
2017-08-09T10:42:48.410Z,40.45
2017-08-09T10:45:17.830Z,40.07
2017-08-09T10:47:47.513Z,39.24
2017-08-09T10:50:16.803Z,37.16
2017-08-09T10:52:46.285Z,37.54
2017-08-09T10:55:15.714Z,36.66
2017-08-09T10:57:45.145Z,36.77
2017-08-09T11:00:14.710Z,37.12
2017-08-09T11:02:44.263Z,36.10
2017-08-09T11:05:13.628Z,38.04
2017-08-09T11:07:42.800Z,36.35
2017-08-09T11:10:11.909Z,37.26
2017-08-09T11:12:41.635Z,37.13
2017-08-09T11:15:10.977Z,37.35
2017-08-09T11:17:40.416Z,38.75
2017-08-09T11:20:09.625Z,39.06
2017-08-09T11:22:39.850Z,38.19
2017-08-09T11:25:09.734Z,39.64
2017-08-09T11:27:39.061Z,41.04
2017-08-09T11:30:08.249Z,40.25
2017-08-09T11:32:38.627Z,39.36
2017-08-09T11:35:07.748Z,40.52
2017-08-09T11:37:37.355Z,40.08
2017-08-09T11:40:06.706Z,40.25
2017-08-09T11:42:35.860Z,41.33
2017-08-09T11:45:05.789Z,42.24
2017-08-09T11:47:35.208Z,43.20
2017-08-09T11:50:04.362Z,42.45
2017-08-09T11:52:33.777Z,42.54
2017-08-09T11:55:03.227Z,42.12
2017-08-09T11:57:32.800Z,42.29
2017-08-09T12:00:02.856Z,42.64
2017-08-09T12:02:32.194Z,42.95
2017-08-09T12:05:02.409Z,41.55
2017-08-09T12:07:31.730Z,42.78
2017-08-09T12:10:00.664Z,42.68
2017-08-09T12:12:30.192Z,42.96
2017-08-09T12:14:59.681Z,43.63
2017-08-09T12:17:28.940Z,44.51
2017-08-09T12:19:59.358Z,43.72
2017-08-09T12:22:28.705Z,43.30
2017-08-09T12:24:58.261Z,44.19
2017-08-09T12:27:27.746Z,43.95
2017-08-09T12:29:56.563Z,43.29
2017-08-09T12:32:27.626Z,42.61
2017-08-09T12:34:56.798Z,42.05
2017-08-09T12:37:26.469Z,41.84
2017-08-09T12:39:55.920Z,41.71
2017-08-09T12:42:25.750Z,41.17
2017-08-09T12:44:54.813Z,39.79
2017-08-09T12:47:24.028Z,39.17
2017-08-09T12:49:53.182Z,39.08
2017-08-09T12:52:22.693Z,40.48
2017-08-09T12:54:51.912Z,39.79
2017-08-09T12:57:20.867Z,39.77
2017-08-09T12:59:50.415Z,38.93
2017-08-09T13:02:19.656Z,39.96
2017-08-09T13:04:50.445Z,41.04
2017-08-09T13:07:22.614Z,40.39
2017-08-09T13:09:52.113Z,40.68
2017-08-09T13:12:21.382Z,41.25
2017-08-09T13:14:50.473Z,41.82
2017-08-09T13:17:20.638Z,42.45
2017-08-09T13:19:49.842Z,42.05
2017-08-09T13:22:19.195Z,41.80
2017-08-09T13:24:48.111Z,42.08
2017-08-09T13:27:18.563Z,42.81
2017-08-09T13:29:47.871Z,42.84
2017-08-09T13:32:20.047Z,41.90
2017-08-09T13:34:49.376Z,44.73
2017-08-09T13:37:19.211Z,42.58
2017-08-09T13:39:48.912Z,42.87
2017-08-09T13:42:18.463Z,42.51
2017-08-09T13:44:48.666Z,43.40
2017-08-09T13:47:17.889Z,43.50
2017-08-09T13:49:47.108Z,43.86
2017-08-09T13:52:16.795Z,43.35
2017-08-09T13:54:46.031Z,44.36
2017-08-09T13:57:15.764Z,43.86
2017-08-09T13:59:44.975Z,44.01
2017-08-09T14:02:15.024Z,43.28
2017-08-09T14:04:44.164Z,43.58
2017-08-09T14:07:13.408Z,44.33
2017-08-09T14:09:42.934Z,43.52
2017-08-09T14:12:12.366Z,43.69
2017-08-09T14:14:41.715Z,43.25
2017-08-09T14:17:11.424Z,43.41
2017-08-09T14:19:40.755Z,43.87
2017-08-09T14:22:10.354Z,43.08
2017-08-09T14:24:39.793Z,44.09
2017-08-09T14:27:10.550Z,43.72
2017-08-09T14:29:39.863Z,44.35
2017-08-09T14:32:09.413Z,44.22
2017-08-09T14:34:38.931Z,43.88
2017-08-09T14:37:08.152Z,45.12
2017-08-09T14:39:37.738Z,44.80
2017-08-09T14:42:07.119Z,44.75
2017-08-09T14:44:36.543Z,44.60
2017-08-09T14:47:06.309Z,45.62
2017-08-09T14:49:35.693Z,45.31
2017-08-09T14:52:05.015Z,45.24
2017-08-09T14:54:34.599Z,44.81
2017-08-09T14:57:03.842Z,44.58
2017-08-09T14:59:33.225Z,45.31
2017-08-09T15:02:02.623Z,45.61
2017-08-09T15:07:11.689Z,45.12
2017-08-09T15:09:41.377Z,44.57
2017-08-09T15:12:10.959Z,45.14
2017-08-09T15:14:40.172Z,46.53
2017-08-09T15:17:09.398Z,46.16
2017-08-09T15:19:39.314Z,45.65
2017-08-09T15:22:08.556Z,45.59
2017-08-09T15:24:38.525Z,46.39
2017-08-09T15:27:09.450Z,46.89
2017-08-09T15:29:39.675Z,46.66
2017-08-09T15:32:09.333Z,46.74
2017-08-09T15:34:38.506Z,46.71
2017-08-09T15:37:07.908Z,46.90
2017-08-09T15:39:37.274Z,46.29
2017-08-09T15:42:06.624Z,46.50
2017-08-09T15:44:36.235Z,47.35
2017-08-09T15:47:05.353Z,46.59
2017-08-09T15:49:34.747Z,47.06
2017-08-09T15:52:04.228Z,48.29
2017-08-09T15:54:33.517Z,48.75
2017-08-09T15:57:02.886Z,48.78
2017-08-09T15:59:33.674Z,48.16
2017-08-09T16:02:03.100Z,48.13
2017-08-09T16:04:33.582Z,48.44
2017-08-09T16:07:02.969Z,48.18
2017-08-09T16:09:32.464Z,48.47
2017-08-09T16:12:02.096Z,48.69
2017-08-09T16:14:31.680Z,48.89
2017-08-09T16:17:00.822Z,48.89
2017-08-09T16:19:31.103Z,49.16
2017-08-09T16:22:00.516Z,49.38
2017-08-09T16:24:30.576Z,49.29
2017-08-09T16:26:59.686Z,49.06
2017-08-09T16:29:29.087Z,48.81
2017-08-09T16:31:58.719Z,49.82
2017-08-09T16:34:28.066Z,49.77
2017-08-09T16:36:57.133Z,49.00
2017-08-09T16:39:26.398Z,49.11
2017-08-09T16:41:55.729Z,48.62
2017-08-09T16:44:25.427Z,49.05
2017-08-09T16:46:54.645Z,49.10
2017-08-09T16:49:23.856Z,49.56
2017-08-09T16:51:53.461Z,49.64
2017-08-09T16:54:22.789Z,49.04
2017-08-09T16:56:51.947Z,49.44
2017-08-09T16:59:21.597Z,49.71
2017-08-09T17:01:50.898Z,49.92
2017-08-09T17:04:20.009Z,49.54
2017-08-09T17:06:49.711Z,50.06
2017-08-09T17:09:19.168Z,49.75
2017-08-09T17:11:48.345Z,49.73
2017-08-09T17:14:17.669Z,49.83
2017-08-09T17:16:47.035Z,49.51
2017-08-09T17:19:16.782Z,49.69
2017-08-09T17:21:46.259Z,48.89
2017-08-09T17:24:16.145Z,49.31
2017-08-09T17:26:45.367Z,49.61
2017-08-09T17:29:14.648Z,50.10
2017-08-09T17:31:44.358Z,49.43
2017-08-09T17:34:13.457Z,49.75
2017-08-09T17:36:42.863Z,49.69
2017-08-09T17:39:12.072Z,50.16
2017-08-09T17:41:41.663Z,49.51
2017-08-09T17:44:11.310Z,49.84
2017-08-09T17:46:40.440Z,49.12
2017-08-09T17:49:10.070Z,49.40
2017-08-09T17:51:39.140Z,49.85
2017-08-09T17:54:08.669Z,49.81
2017-08-09T17:56:38.198Z,49.99
2017-08-09T17:59:07.457Z,49.50
2017-08-09T18:01:37.065Z,50.11
2017-08-09T18:04:06.606Z,50.07
2017-08-09T18:06:35.888Z,50.20
2017-08-09T18:09:05.345Z,49.85
2017-08-09T18:11:35.496Z,49.95
2017-08-09T18:14:05.311Z,49.94
2017-08-09T18:16:34.318Z,50.53
2017-08-09T18:19:04.157Z,50.16
2017-08-09T18:21:33.534Z,50.43
2017-08-09T18:24:05.613Z,50.28
2017-08-09T18:26:35.202Z,50.29
2017-08-09T18:29:04.307Z,50.20
2017-08-09T18:31:33.876Z,50.33
2017-08-09T18:34:03.229Z,50.15
2017-08-09T18:36:33.020Z,50.32
2017-08-09T18:39:02.192Z,50.26
2017-08-09T18:41:31.340Z,50.33
2017-08-09T18:44:00.692Z,50.52
2017-08-09T18:46:29.968Z,50.66
2017-08-09T18:48:59.196Z,49.99
2017-08-09T18:51:28.360Z,50.08
2017-08-09T18:53:57.611Z,50.47
2017-08-09T18:56:26.981Z,50.28
2017-08-09T18:58:55.981Z,50.24
2017-08-09T19:01:25.525Z,51.09
2017-08-09T19:03:54.652Z,51.42
2017-08-09T19:06:25.151Z,51.46
2017-08-09T19:08:54.538Z,51.41
2017-08-09T19:11:23.869Z,51.57
2017-08-09T19:13:53.739Z,51.31
2017-08-09T19:16:23.121Z,51.37
2017-08-09T19:18:52.624Z,51.22
2017-08-09T19:21:22.701Z,51.43
2017-08-09T19:23:52.241Z,51.05
2017-08-09T19:26:21.864Z,50.82
2017-08-09T19:28:51.417Z,50.88
2017-08-09T19:31:21.021Z,51.27
2017-08-09T19:33:50.134Z,51.25
2017-08-09T19:36:19.958Z,51.00
2017-08-09T19:38:49.186Z,50.76
2017-08-09T19:41:18.729Z,50.83
2017-08-09T19:43:47.752Z,50.78
2017-08-09T19:46:17.012Z,50.72
2017-08-09T19:48:46.851Z,50.85
2017-08-09T19:51:16.059Z,50.58
2017-08-09T19:53:45.546Z,50.40
2017-08-09T19:56:14.953Z,50.52
2017-08-09T19:58:44.341Z,50.62
2017-08-09T20:01:13.720Z,50.78
2017-08-09T20:03:43.251Z,50.62
2017-08-09T20:06:13.222Z,50.62
2017-08-09T20:08:42.514Z,50.71
2017-08-09T20:11:12.140Z,51.22
2017-08-09T20:13:42.650Z,51.58
2017-08-09T20:16:12.259Z,51.74
2017-08-09T20:18:42.071Z,51.97
2017-08-09T20:21:11.520Z,52.02
2017-08-09T20:23:40.862Z,52.75
2017-08-09T20:26:10.286Z,52.89
2017-08-09T20:28:39.660Z,52.62
2017-08-09T20:31:09.108Z,53.24
2017-08-09T20:33:38.146Z,53.41
2017-08-09T20:36:07.294Z,53.79
2017-08-09T20:38:36.820Z,55.08
2017-08-09T20:41:06.182Z,55.36
2017-08-09T20:43:35.809Z,55.54
2017-08-09T20:46:04.974Z,55.65
2017-08-09T20:48:34.536Z,58.95
2017-08-09T20:51:03.977Z,60.21
2017-08-09T20:53:34.649Z,61.58
2017-08-09T20:56:04.300Z,64.16
2017-08-09T20:58:36.436Z,64.22
2017-08-09T21:01:05.832Z,66.42
2017-08-09T21:03:34.996Z,68.73
2017-08-09T21:06:05.020Z,70.18
2017-08-09T21:08:34.849Z,70.52
2017-08-09T21:11:03.944Z,69.73
2017-08-09T21:13:33.312Z,71.32
2017-08-09T21:16:02.482Z,71.68
2017-08-09T21:18:32.263Z,72.09
2017-08-09T21:21:01.747Z,73.48
2017-08-09T21:23:31.700Z,73.54
2017-08-09T21:26:01.593Z,74.09
2017-08-09T21:28:30.868Z,73.73
2017-08-09T21:31:00.211Z,74.60
2017-08-09T21:33:29.753Z,74.68
2017-08-09T21:35:58.928Z,73.89
2017-08-09T21:38:28.580Z,75.50
2017-08-09T21:40:59.430Z,75.27
2017-08-09T21:43:28.950Z,75.09
2017-08-09T21:45:57.978Z,73.93
2017-08-09T21:48:27.330Z,74.77
2017-08-09T21:50:56.767Z,74.04
2017-08-09T21:53:25.903Z,73.00
2017-08-09T21:55:55.606Z,73.91
2017-08-09T21:58:24.777Z,74.35
2017-08-09T22:00:53.986Z,73.73
2017-08-09T22:03:23.657Z,71.86
2017-08-09T22:05:52.644Z,73.57
2017-08-09T22:08:22.434Z,75.11
2017-08-09T22:10:51.605Z,75.06
2017-08-09T22:13:21.155Z,74.90
2017-08-09T22:15:51.230Z,75.69
2017-08-09T22:18:20.608Z,76.09
2017-08-09T22:20:50.182Z,75.66
2017-08-09T22:23:19.676Z,75.42
2017-08-09T22:25:49.560Z,74.87
2017-08-09T22:28:18.859Z,73.51
2017-08-09T22:30:48.002Z,73.55
2017-08-09T22:33:17.873Z,72.69
2017-08-09T22:35:47.072Z,71.85
2017-08-09T22:38:16.381Z,71.84
2017-08-09T22:40:45.652Z,71.27
2017-08-09T22:43:15.135Z,71.14
2017-08-09T22:45:44.865Z,71.33
2017-08-09T22:48:14.517Z,72.78
2017-08-09T22:50:43.979Z,74.95
2017-08-09T22:53:13.333Z,72.74
2017-08-09T22:55:42.551Z,72.98
2017-08-09T22:58:12.141Z,73.09
2017-08-09T23:00:41.772Z,72.18
2017-08-09T23:03:11.373Z,71.88
2017-08-09T23:05:40.562Z,70.87
2017-08-09T23:08:09.883Z,70.32
2017-08-09T23:10:39.564Z,70.70
2017-08-09T23:13:08.705Z,71.19
2017-08-09T23:15:38.272Z,71.18
2017-08-09T23:18:07.848Z,71.36
2017-08-09T23:20:37.312Z,71.25
2017-08-09T23:23:06.569Z,72.13
2017-08-09T23:25:36.034Z,73.04
2017-08-09T23:28:05.570Z,73.27
2017-08-09T23:30:34.765Z,74.11
2017-08-09T23:33:05.689Z,73.09
2017-08-09T23:35:34.981Z,73.52
2017-08-09T23:38:04.286Z,73.16
2017-08-09T23:40:33.910Z,73.69
2017-08-09T23:43:03.199Z,72.79
2017-08-09T23:45:32.677Z,73.92
2017-08-09T23:48:01.912Z,74.66
2017-08-09T23:50:31.695Z,75.71
2017-08-09T23:53:01.172Z,75.26
2017-08-09T23:55:30.557Z,76.92
2017-08-09T23:58:00.294Z,77.44
